AirNav   Pilot Hours Calculator
 
 1387 users online  

4MO2 Newcomb Hereford Ranch Airport
Lancaster, Missouri, USA

GOING TO LANCASTER?


FAA INFORMATION EFFECTIVE 01 DECEMBER 2022

Location

FAA Identifier: 4MO2
Lat/Long: 40-33-30.1040N 092-26-30.6710W
40-33.501733N 092-26.511183W
40.5583622,-92.4418531
(estimated)
Elevation: 850 ft. / 259 m (estimated)
Variation: 03E (1985)
From city: 4 miles NE of LANCASTER, MO
Time zone: UTC -6 (UTC -5 during Daylight Saving Time)
Zip code: 63548

Airport Operations

Airport use: Private use. Permission required prior to landing
Activation date: 01/1970
Control tower: no
ARTCC: KANSAS CITY CENTER
FSS: COLUMBIA FLIGHT SERVICE STATION
Attendance: UNATNDD
Wind indicator: yes
Segmented circle: no

Nearby radio navigation aids

VOR radial/distance  VOR name  Freq  Var
IRKr009/26.3KIRKSVILLE VORTAC114.6006E
OTMr185/28.7OTTUMWA VOR/DME111.6006E

 
NDB name  Hdg/Dist  Freq  Var  ID
BLOOMFIELD181/11.226902EBEX -... . -..-

Airport Services

Airframe service: NONE
Powerplant service: NONE

Runway Information

Runway 15/33

Dimensions: 2000 x 60 ft. / 610 x 18 m
Surface: turf
RUNWAY 15  RUNWAY 33
Traffic pattern: leftleft
Obstructions: nonetwr, marked and lighted

Airport Ownership and Management from official FAA records

Ownership: Privately-owned
Owner: DONALD L. NEWCOMB
12711 N TOWER AVE
LANCASTER, MO 63548
Phone 816-457-3620
CELL: 660-216-7895
Manager: DONALD L. NEWCOMB
12711 N TOWER AVE
LANCASTER, MO 63548
Phone 816-457-3620

Airport Operational Statistics

Aircraft based on the field: 1
Single engine airplanes: 1
    

Additional Remarks

FOR CD CTC KANSAS CITY ARTCC AT 913-254-8508.

Instrument Procedures

There are no published instrument procedures at 4MO2.

Some nearby airports with instrument procedures:

4K6 - Bloomfield Municipal Airport (10 nm N)
03D - Memphis Memorial Airport (12 nm SE)
KTVK - Centerville Municipal Airport (22 nm W)
KIRK - Kirksville Regional Airport (28 nm S)
4C8 - Albia Municipal Airport (30 nm NW)
 
Loc | Ops | Rwys | IFR | FBO | Links
Com | Nav | Svcs | Stats | Notes
Area around 4MO2 (Newcomb Hereford Ranch Airport)
 
Road maps at: MapQuest Bing Google
 
Aerial photo
No photo
 
Sectional chart

 
Airport distance calculator
Flying to Newcomb Hereford Ranch Airport? Find the distance to fly.

From to 4MO2

Sunrise and sunset
Times for 02-Dec-2022
 Local
(UTC-6)
 Zulu
(UTC)
Morning civil twilight06:4612:46
Sunrise07:1613:16
Sunset16:4222:42
Evening civil twilight17:1323:13

Current date and time
Zulu (UTC)  02-Dec-2022 17:19:08
Local (UTC-6)  02-Dec-2022 11:19:08
 
METAR
KTVK 
22nm W 
021655Z AUTO 18019G26KT 10SM CLR 10/02 A2969 RMK AO2
KIRK 
28nm S 
021655Z AUTO 20020G35KT 10SM CLR 12/03 A2974 RMK AO2 PK WND 20035/1651 SLP076 T01170033
KOTM 
32nm N 
021653Z AUTO 20018G26KT 10SM CLR 11/02 A2969 RMK AO2 PK WND 21026/1650 SLP059 T01060022
KFFL 
36nm NE 
021655Z AUTO 19015KT 10SM 09/M01 A2971 RMK A01
KOOA 
40nm N 
021655Z AUTO 21018G26KT 10SM SCT030 11/06 A2969 RMK AO2 T01120060
TAF
KOTM 
32nm N 
021129Z 0212/0312 17012G18KT P6SM SCT025 BKN200 WS020/20040KT FM021600 19020G31KT P6SM BKN025 FM022200 21017G27KT P6SM BKN050 FM030200 29027G41KT P6SM BKN030 FM031000 31015G26KT P6SM SCT030
NOTAMs
Click for the latest NOTAMs
NOTAMs are issued by the DoD/FAA and will open in a separate window not controlled by AirNav.

 

 
 

Would you like to see your business listed on this page?

 If your business provides an interesting product or service to pilots, flight crews, aircraft, or users of the Newcomb Hereford Ranch Airport, you should consider listing it here.  To start the listing process, click on the button below
 
Add a business
 

Other Pages about Newcomb Hereford Ranch Airport

Update a link
 
Copyright © AirNav, LLC. All rights reserved. Privacy Policy  Contact